Дата Пункты Температура Давл., мм. Влажн., % Ветер Погодные явления
Воздуха Воды Направл. Скорость
05.04.18 12:00 Одесса 9.0 4.0 759 86 Ю 5 12 ЧАСОВ
05.04.18 09:00 Одесса 7.0 4.0 759 94 Ю 3 09 ЧАСОВ
05.04.18 06:00 Одесса 7.0 4.0 759 96 Ю-З 2 06 ЧАСОВ
05.04.18 03:00 Одесса 7.0 4.0 760 92 Ю 2 03 ЧАСА
04.04.18 09:00 Одесса 7.0 4.0 761 88 Ю 3 21 ЧАС
04.04.18 06:00 Одесса 7.0 4.0 761 93 Ю-З 3 18 ЧАСОВ
04.04.18 03:00 Одесса 10.0 4.0 762 84 Ю 4 15 ЧАСОВ
04.04.18 12:00 Одесса 9.0 5.0 763 81 Ю 3 12 ЧАСОВ
04.04.18 09:00 Одесса 8.0 5.0 762 85 Ю-З 4 09 ЧАСОВ
04.04.18 06:00 Одесса 6.0 6.0 762 89 Ю-З 3 06 ЧАСОВ
04.04.18 03:00 Одесса 6.0 6.0 762 84 Ю-З 2 03 ЧАСА
03.04.18 09:00 Одесса 9.0 6.0 762 57 Ю-З 3 21 ЧАС
03.04.18 06:00 Одесса 12.0 5.0 762 51 Ю-З 3 18 ЧАСОВ
03.04.18 03:00 Одесса 9.0 5.0 762 70 Ю 4 15 ЧАСОВ
03.04.18 12:00 Одесса 8.0 5.0 763 78 Ю-В 2 12 ЧАСОВ
03.04.18 09:00 Одесса 7.0 5.0 762 64 С-З 2 09 ЧАСОВ
03.04.18 06:00 Одесса 4.0 6.0 761 77 З 2 06 ЧАСОВ
03.04.18 03:00 Одесса 5.0 6.0 759 67 С-З 2 03 ЧАСА
02.04.18 09:00 Одесса 9.0 6.0 756 58 С-З 1 21 ЧАС
02.04.18 06:00 Одесса 11.0 6.0 754 43 С-З 4 18 ЧАСОВ
Количество строк
1 2 3 4 5 6 7 8 9 10
Page 8 of 354